sensor_id;sensor_type;location;lat;lon;timestamp;temperature;humidity
53876;DHT22;39789;53.216;5.624;2023-09-19T00:00:20;15.20;99.90
53876;DHT22;39789;53.216;5.624;2023-09-19T00:02:56;15.50;99.90
53876;DHT22;39789;53.216;5.624;2023-09-19T00:05:25;15.20;99.90
53876;DHT22;39789;53.216;5.624;2023-09-19T00:07:55;15.30;99.90
53876;DHT22;39789;53.216;5.624;2023-09-19T00:10:21;15.30;99.90
53876;DHT22;39789;53.216;5.624;2023-09-19T00:12:50;15.30;99.90
53876;DHT22;39789;53.216;5.624;2023-09-19T00:15:17;15.20;99.90
53876;DHT22;39789;53.216;5.624;2023-09-19T00:17:43;15.20;99.90
53876;DHT22;39789;53.216;5.624;2023-09-19T00:20:09;15.20;99.90
53876;DHT22;39789;53.216;5.624;2023-09-19T00:22:41;15.20;99.90
53876;DHT22;39789;53.216;5.624;2023-09-19T00:25:10;15.20;99.90
53876;DHT22;39789;53.216;5.624;2023-09-19T00:27:38;15.20;99.90
53876;DHT22;39789;53.216;5.624;2023-09-19T00:30:07;15.20;99.90
53876;DHT22;39789;53.216;5.624;2023-09-19T00:32:38;15.10;99.90
53876;DHT22;39789;53.216;5.624;2023-09-19T00:35:04;15.10;99.90
53876;DHT22;39789;53.216;5.624;2023-09-19T00:37:30;15.00;99.90
53876;DHT22;39789;53.216;5.624;2023-09-19T00:39:55;15.00;99.90
53876;DHT22;39789;53.216;5.624;2023-09-19T00:42:21;14.90;99.90
53876;DHT22;39789;53.216;5.624;2023-09-19T00:44:47;14.90;99.90
53876;DHT22;39789;53.216;5.624;2023-09-19T00:47:17;14.80;99.90
53876;DHT22;39789;53.216;5.624;2023-09-19T00:49:44;14.80;99.90
53876;DHT22;39789;53.216;5.624;2023-09-19T00:52:11;14.80;99.90
53876;DHT22;39789;53.216;5.624;2023-09-19T00:54:37;15.00;99.90
53876;DHT22;39789;53.216;5.624;2023-09-19T00:57:03;14.90;99.90
53876;DHT22;39789;53.216;5.624;2023-09-19T00:59:29;14.80;99.90
53876;DHT22;39789;53.216;5.624;2023-09-19T01:01:56;14.90;99.90
53876;DHT22;39789;53.216;5.624;2023-09-19T01:04:22;14.90;99.90
53876;DHT22;39789;53.216;5.624;2023-09-19T01:06:49;14.90;99.90
53876;DHT22;39789;53.216;5.624;2023-09-19T01:09:19;14.90;99.90
53876;DHT22;39789;53.216;5.624;2023-09-19T01:11:48;14.90;99.90
53876;DHT22;39789;53.216;5.624;2023-09-19T01:14:32;15.30;99.90
53876;DHT22;39789;53.216;5.624;2023-09-19T01:17:18;14.90;99.90
53876;DHT22;39789;53.216;5.624;2023-09-19T01:20:02;14.90;99.90
53876;DHT22;39789;53.216;5.624;2023-09-19T01:31:13;15.00;99.90
53876;DHT22;39789;53.216;5.624;2023-09-19T01:33:54;15.00;99.90
53876;DHT22;39789;53.216;5.624;2023-09-19T01:36:32;15.00;99.90
53876;DHT22;39789;53.216;5.624;2023-09-19T01:39:07;15.00;99.90
53876;DHT22;39789;53.216;5.624;2023-09-19T01:41:47;15.00;99.90
53876;DHT22;39789;53.216;5.624;2023-09-19T01:44:25;14.90;99.90
53876;DHT22;39789;53.216;5.624;2023-09-19T01:46:54;14.90;99.90
53876;DHT22;39789;53.216;5.624;2023-09-19T01:52:57;15.00;99.90
53876;DHT22;39789;53.216;5.624;2023-09-19T01:55:24;15.00;99.90
53876;DHT22;39789;53.216;5.624;2023-09-19T01:58:08;15.00;99.90
53876;DHT22;39789;53.216;5.624;2023-09-19T02:00:40;15.00;99.90
53876;DHT22;39789;53.216;5.624;2023-09-19T02:03:07;15.00;99.90
53876;DHT22;39789;53.216;5.624;2023-09-19T02:05:33;15.00;99.90
53876;DHT22;39789;53.216;5.624;2023-09-19T02:07:59;15.00;99.90
53876;DHT22;39789;53.216;5.624;2023-09-19T02:10:26;15.40;99.90
53876;DHT22;39789;53.216;5.624;2023-09-19T02:12:51;15.00;99.90
53876;DHT22;39789;53.216;5.624;2023-09-19T02:15:17;15.00;99.90
53876;DHT22;39789;53.216;5.624;2023-09-19T02:17:43;15.00;99.90
53876;DHT22;39789;53.216;5.624;2023-09-19T02:20:10;15.40;99.90
53876;DHT22;39789;53.216;5.624;2023-09-19T02:22:43;15.00;99.90
53876;DHT22;39789;53.216;5.624;2023-09-19T02:25:09;15.00;99.90
53876;DHT22;39789;53.216;5.624;2023-09-19T02:27:36;15.00;99.90
53876;DHT22;39789;53.216;5.624;2023-09-19T02:30:03;15.00;99.90
53876;DHT22;39789;53.216;5.624;2023-09-19T02:32:30;15.00;99.90
53876;DHT22;39789;53.216;5.624;2023-09-19T02:35:01;15.00;99.90
53876;DHT22;39789;53.216;5.624;2023-09-19T02:37:27;15.00;99.90
53876;DHT22;39789;53.216;5.624;2023-09-19T02:39:53;15.00;99.90
53876;DHT22;39789;53.216;5.624;2023-09-19T02:42:18;14.90;99.90
53876;DHT22;39789;53.216;5.624;2023-09-19T02:44:44;14.90;99.90
53876;DHT22;39789;53.216;5.624;2023-09-19T02:47:12;14.90;99.90
53876;DHT22;39789;53.216;5.624;2023-09-19T02:49:38;15.10;99.90
53876;DHT22;39789;53.216;5.624;2023-09-19T02:52:03;14.80;99.90
53876;DHT22;39789;53.216;5.624;2023-09-19T02:54:29;14.80;99.90
53876;DHT22;39789;53.216;5.624;2023-09-19T02:56:55;14.80;99.90
53876;DHT22;39789;53.216;5.624;2023-09-19T02:59:21;14.70;99.90
53876;DHT22;39789;53.216;5.624;2023-09-19T03:01:46;14.70;99.90
53876;DHT22;39789;53.216;5.624;2023-09-19T03:04:14;14.70;99.90
53876;DHT22;39789;53.216;5.624;2023-09-19T03:06:45;14.70;99.90
53876;DHT22;39789;53.216;5.624;2023-09-19T03:09:11;14.70;99.90
53876;DHT22;39789;53.216;5.624;2023-09-19T03:11:37;14.70;99.90
53876;DHT22;39789;53.216;5.624;2023-09-19T03:14:03;14.70;99.90
53876;DHT22;39789;53.216;5.624;2023-09-19T03:16:29;14.70;99.90
53876;DHT22;39789;53.216;5.624;2023-09-19T03:18:55;14.70;99.90
53876;DHT22;39789;53.216;5.624;2023-09-19T03:21:20;14.90;99.90
53876;DHT22;39789;53.216;5.624;2023-09-19T03:23:47;14.60;99.90
53876;DHT22;39789;53.216;5.624;2023-09-19T03:26:13;14.60;99.90
53876;DHT22;39789;53.216;5.624;2023-09-19T03:28:39;14.60;99.90
53876;DHT22;39789;53.216;5.624;2023-09-19T03:31:06;14.60;99.90
53876;DHT22;39789;53.216;5.624;2023-09-19T03:33:32;14.60;99.90
53876;DHT22;39789;53.216;5.624;2023-09-19T03:36:00;14.60;99.90
53876;DHT22;39789;53.216;5.624;2023-09-19T03:38:26;14.60;99.90
53876;DHT22;39789;53.216;5.624;2023-09-19T03:40:53;14.60;99.90
53876;DHT22;39789;53.216;5.624;2023-09-19T03:43:19;14.90;99.90
53876;DHT22;39789;53.216;5.624;2023-09-19T03:45:44;14.60;99.90
53876;DHT22;39789;53.216;5.624;2023-09-19T03:48:13;14.60;99.90
53876;DHT22;39789;53.216;5.624;2023-09-19T03:50:39;14.60;99.90
53876;DHT22;39789;53.216;5.624;2023-09-19T03:53:04;14.70;99.90
53876;DHT22;39789;53.216;5.624;2023-09-19T03:55:32;14.80;99.90
53876;DHT22;39789;53.216;5.624;2023-09-19T03:57:57;14.70;99.90
53876;DHT22;39789;53.216;5.624;2023-09-19T04:00:23;14.70;99.90
53876;DHT22;39789;53.216;5.624;2023-09-19T04:02:52;14.70;99.90
53876;DHT22;39789;53.216;5.624;2023-09-19T04:05:18;14.80;99.90
53876;DHT22;39789;53.216;5.624;2023-09-19T04:07:44;14.80;99.90
53876;DHT22;39789;53.216;5.624;2023-09-19T04:10:09;14.80;99.90
53876;DHT22;39789;53.216;5.624;2023-09-19T04:12:37;14.80;99.90
53876;DHT22;39789;53.216;5.624;2023-09-19T04:15:05;14.80;99.90
53876;DHT22;39789;53.216;5.624;2023-09-19T04:17:31;14.90;99.90
53876;DHT22;39789;53.216;5.624;2023-09-19T04:19:59;14.90;99.90
53876;DHT22;39789;53.216;5.624;2023-09-19T04:22:24;14.90;99.90
53876;DHT22;39789;53.216;5.624;2023-09-19T04:24:50;15.00;99.90
53876;DHT22;39789;53.216;5.624;2023-09-19T04:27:15;15.10;99.90
53876;DHT22;39789;53.216;5.624;2023-09-19T04:29:41;14.90;99.90
53876;DHT22;39789;53.216;5.624;2023-09-19T04:32:07;14.90;99.90
53876;DHT22;39789;53.216;5.624;2023-09-19T04:34:33;14.90;99.90
53876;DHT22;39789;53.216;5.624;2023-09-19T04:37:00;14.90;99.90
53876;DHT22;39789;53.216;5.624;2023-09-19T04:39:26;14.90;99.90
53876;DHT22;39789;53.216;5.624;2023-09-19T04:41:52;14.90;99.90
53876;DHT22;39789;53.216;5.624;2023-09-19T04:44:18;14.90;99.90
53876;DHT22;39789;53.216;5.624;2023-09-19T04:46:44;14.90;99.90
53876;DHT22;39789;53.216;5.624;2023-09-19T04:49:11;15.40;99.90
53876;DHT22;39789;53.216;5.624;2023-09-19T04:51:38;14.90;99.90
53876;DHT22;39789;53.216;5.624;2023-09-19T04:54:04;15.80;99.90
53876;DHT22;39789;53.216;5.624;2023-09-19T04:56:29;14.90;99.90
53876;DHT22;39789;53.216;5.624;2023-09-19T04:58:56;14.90;99.90
53876;DHT22;39789;53.216;5.624;2023-09-19T05:01:24;14.90;99.90
53876;DHT22;39789;53.216;5.624;2023-09-19T05:03:49;14.90;99.90
53876;DHT22;39789;53.216;5.624;2023-09-19T05:06:18;15.00;99.90
53876;DHT22;39789;53.216;5.624;2023-09-19T05:08:44;15.50;99.90
53876;DHT22;39789;53.216;5.624;2023-09-19T05:11:09;15.00;99.90
53876;DHT22;39789;53.216;5.624;2023-09-19T05:13:35;15.00;99.90
53876;DHT22;39789;53.216;5.624;2023-09-19T05:16:01;15.00;99.90
53876;DHT22;39789;53.216;5.624;2023-09-19T05:18:29;15.00;99.90
53876;DHT22;39789;53.216;5.624;2023-09-19T05:20:55;15.00;99.90
53876;DHT22;39789;53.216;5.624;2023-09-19T05:23:21;15.00;99.90
53876;DHT22;39789;53.216;5.624;2023-09-19T05:25:47;15.70;99.90
53876;DHT22;39789;53.216;5.624;2023-09-19T05:28:12;15.00;99.90
53876;DHT22;39789;53.216;5.624;2023-09-19T05:30:40;15.00;99.90
53876;DHT22;39789;53.216;5.624;2023-09-19T05:33:08;15.00;99.90
53876;DHT22;39789;53.216;5.624;2023-09-19T05:35:37;15.00;99.90
53876;DHT22;39789;53.216;5.624;2023-09-19T05:38:05;15.00;99.90
53876;DHT22;39789;53.216;5.624;2023-09-19T05:40:34;15.00;99.90
53876;DHT22;39789;53.216;5.624;2023-09-19T05:43:00;15.90;99.90
53876;DHT22;39789;53.216;5.624;2023-09-19T05:45:26;15.10;99.90
53876;DHT22;39789;53.216;5.624;2023-09-19T05:47:53;15.00;99.90
53876;DHT22;39789;53.216;5.624;2023-09-19T05:50:26;15.80;99.90
53876;DHT22;39789;53.216;5.624;2023-09-19T05:52:52;15.00;99.90
53876;DHT22;39789;53.216;5.624;2023-09-19T05:55:18;15.10;99.90
53876;DHT22;39789;53.216;5.624;2023-09-19T05:57:52;15.10;99.90
53876;DHT22;39789;53.216;5.624;2023-09-19T06:00:22;15.20;99.90
53876;DHT22;39789;53.216;5.624;2023-09-19T06:02:52;15.20;99.90
53876;DHT22;39789;53.216;5.624;2023-09-19T06:05:19;15.20;99.90
53876;DHT22;39789;53.216;5.624;2023-09-19T06:07:45;15.20;99.90
53876;DHT22;39789;53.216;5.624;2023-09-19T06:10:12;15.20;99.90
53876;DHT22;39789;53.216;5.624;2023-09-19T06:12:38;15.30;99.90
53876;DHT22;39789;53.216;5.624;2023-09-19T06:15:05;15.30;99.90
53876;DHT22;39789;53.216;5.624;2023-09-19T06:17:31;15.30;99.90
53876;DHT22;39789;53.216;5.624;2023-09-19T06:19:57;15.40;99.90
53876;DHT22;39789;53.216;5.624;2023-09-19T06:22:23;15.40;99.90
53876;DHT22;39789;53.216;5.624;2023-09-19T06:24:50;15.50;99.90
53876;DHT22;39789;53.216;5.624;2023-09-19T06:27:15;15.50;99.90
53876;DHT22;39789;53.216;5.624;2023-09-19T06:29:41;15.50;99.90
53876;DHT22;39789;53.216;5.624;2023-09-19T06:32:10;15.60;99.90
53876;DHT22;39789;53.216;5.624;2023-09-19T06:34:36;15.60;99.90
53876;DHT22;39789;53.216;5.624;2023-09-19T06:37:06;16.10;99.90
53876;DHT22;39789;53.216;5.624;2023-09-19T06:39:31;15.70;99.90
53876;DHT22;39789;53.216;5.624;2023-09-19T06:41:57;15.70;99.90
53876;DHT22;39789;53.216;5.624;2023-09-19T06:44:23;16.50;99.90
53876;DHT22;39789;53.216;5.624;2023-09-19T06:46:50;15.70;99.90
53876;DHT22;39789;53.216;5.624;2023-09-19T06:49:17;16.30;99.90
53876;DHT22;39789;53.216;5.624;2023-09-19T06:51:43;16.40;99.90
53876;DHT22;39789;53.216;5.624;2023-09-19T06:54:11;15.80;99.90
53876;DHT22;39789;53.216;5.624;2023-09-19T06:56:37;15.90;99.90
53876;DHT22;39789;53.216;5.624;2023-09-19T06:59:03;15.80;99.90
53876;DHT22;39789;53.216;5.624;2023-09-19T07:01:31;15.90;99.90
53876;DHT22;39789;53.216;5.624;2023-09-19T07:03:57;15.90;99.90
53876;DHT22;39789;53.216;5.624;2023-09-19T07:06:23;15.90;99.90
53876;DHT22;39789;53.216;5.624;2023-09-19T07:08:49;16.00;99.90
53876;DHT22;39789;53.216;5.624;2023-09-19T07:11:15;16.70;99.90
53876;DHT22;39789;53.216;5.624;2023-09-19T07:13:41;16.50;99.90
53876;DHT22;39789;53.216;5.624;2023-09-19T07:16:07;16.10;99.90
53876;DHT22;39789;53.216;5.624;2023-09-19T07:18:34;16.00;99.90
53876;DHT22;39789;53.216;5.624;2023-09-19T07:21:00;16.00;99.90
53876;DHT22;39789;53.216;5.624;2023-09-19T07:23:30;16.00;99.90
53876;DHT22;39789;53.216;5.624;2023-09-19T07:26:03;16.20;99.90
53876;DHT22;39789;53.216;5.624;2023-09-19T07:28:31;16.30;99.90
53876;DHT22;39789;53.216;5.624;2023-09-19T07:30:56;16.40;99.90
53876;DHT22;39789;53.216;5.624;2023-09-19T07:33:22;16.60;99.90
53876;DHT22;39789;53.216;5.624;2023-09-19T07:35:50;16.70;99.90
53876;DHT22;39789;53.216;5.624;2023-09-19T07:38:15;16.90;99.40
53876;DHT22;39789;53.216;5.624;2023-09-19T07:40:45;17.30;98.60
53876;DHT22;39789;53.216;5.624;2023-09-19T07:43:10;17.50;97.70
53876;DHT22;39789;53.216;5.624;2023-09-19T07:45:36;18.10;96.90
53876;DHT22;39789;53.216;5.624;2023-09-19T07:48:02;18.50;95.70
53876;DHT22;39789;53.216;5.624;2023-09-19T07:50:30;18.60;95.00
53876;DHT22;39789;53.216;5.624;2023-09-19T07:52:56;18.70;94.60
53876;DHT22;39789;53.216;5.624;2023-09-19T07:55:22;19.30;94.60
53876;DHT22;39789;53.216;5.624;2023-09-19T07:57:54;18.70;93.50
53876;DHT22;39789;53.216;5.624;2023-09-19T08:00:20;18.20;92.90
53876;DHT22;39789;53.216;5.624;2023-09-19T08:02:46;18.00;93.70
53876;DHT22;39789;53.216;5.624;2023-09-19T08:05:14;17.80;93.80
53876;DHT22;39789;53.216;5.624;2023-09-19T08:07:45;18.50;94.20
53876;DHT22;39789;53.216;5.624;2023-09-19T08:10:14;18.00;93.40
53876;DHT22;39789;53.216;5.624;2023-09-19T08:12:42;17.60;93.30
53876;DHT22;39789;53.216;5.624;2023-09-19T08:15:17;17.70;93.80
53876;DHT22;39789;53.216;5.624;2023-09-19T08:17:45;17.70;93.80
53876;DHT22;39789;53.216;5.624;2023-09-19T08:20:11;17.80;94.40
53876;DHT22;39789;53.216;5.624;2023-09-19T08:22:50;17.50;94.90
53876;DHT22;39789;53.216;5.624;2023-09-19T08:25:18;17.40;94.90
53876;DHT22;39789;53.216;5.624;2023-09-19T08:27:45;17.50;95.30
53876;DHT22;39789;53.216;5.624;2023-09-19T08:30:20;17.30;95.90
53876;DHT22;39789;53.216;5.624;2023-09-19T08:32:59;17.20;96.20
53876;DHT22;39789;53.216;5.624;2023-09-19T08:35:26;17.40;96.00
53876;DHT22;39789;53.216;5.624;2023-09-19T08:37:52;17.50;96.10
53876;DHT22;39789;53.216;5.624;2023-09-19T08:40:18;17.60;95.70
53876;DHT22;39789;53.216;5.624;2023-09-19T08:42:51;17.70;95.70
53876;DHT22;39789;53.216;5.624;2023-09-19T08:45:17;17.80;95.50
53876;DHT22;39789;53.216;5.624;2023-09-19T08:47:56;17.80;95.60
53876;DHT22;39789;53.216;5.624;2023-09-19T08:50:29;17.80;95.10
53876;DHT22;39789;53.216;5.624;2023-09-19T08:52:56;17.80;95.50
53876;DHT22;39789;53.216;5.624;2023-09-19T08:55:29;17.90;95.20
53876;DHT22;39789;53.216;5.624;2023-09-19T08:58:10;17.90;95.10
53876;DHT22;39789;53.216;5.624;2023-09-19T09:00:36;18.00;94.30
53876;DHT22;39789;53.216;5.624;2023-09-19T09:03:03;18.00;94.40
53876;DHT22;39789;53.216;5.624;2023-09-19T09:05:32;18.00;94.00
53876;DHT22;39789;53.216;5.624;2023-09-19T09:08:00;18.00;93.70
53876;DHT22;39789;53.216;5.624;2023-09-19T09:10:26;18.00;93.70
53876;DHT22;39789;53.216;5.624;2023-09-19T09:12:53;18.20;94.00
53876;DHT22;39789;53.216;5.624;2023-09-19T09:15:22;18.80;94.20
53876;DHT22;39789;53.216;5.624;2023-09-19T09:17:50;18.40;94.50
53876;DHT22;39789;53.216;5.624;2023-09-19T09:20:17;18.50;94.50
53876;DHT22;39789;53.216;5.624;2023-09-19T09:23:04;18.60;94.60
53876;DHT22;39789;53.216;5.624;2023-09-19T09:25:56;18.60;93.70
53876;DHT22;39789;53.216;5.624;2023-09-19T09:28:26;18.70;93.80
53876;DHT22;39789;53.216;5.624;2023-09-19T09:30:57;18.70;94.70
53876;DHT22;39789;53.216;5.624;2023-09-19T09:33:34;18.70;94.40
53876;DHT22;39789;53.216;5.624;2023-09-19T09:36:01;18.80;94.20
53876;DHT22;39789;53.216;5.624;2023-09-19T09:38:42;18.80;94.10
53876;DHT22;39789;53.216;5.624;2023-09-19T09:41:09;18.70;93.70
53876;DHT22;39789;53.216;5.624;2023-09-19T09:43:37;19.40;94.30
53876;DHT22;39789;53.216;5.624;2023-09-19T09:46:08;19.20;94.40
53876;DHT22;39789;53.216;5.624;2023-09-19T09:51:48;18.90;94.70
53876;DHT22;39789;53.216;5.624;2023-09-19T09:54:23;18.60;94.60
53876;DHT22;39789;53.216;5.624;2023-09-19T09:56:57;18.60;95.00
53876;DHT22;39789;53.216;5.624;2023-09-19T09:59:46;18.80;94.00
53876;DHT22;39789;53.216;5.624;2023-09-19T10:02:15;18.90;93.50
53876;DHT22;39789;53.216;5.624;2023-09-19T10:04:48;18.70;94.40
53876;DHT22;39789;53.216;5.624;2023-09-19T10:07:26;18.90;94.40
53876;DHT22;39789;53.216;5.624;2023-09-19T10:09:53;18.80;94.20
53876;DHT22;39789;53.216;5.624;2023-09-19T10:12:25;18.90;94.40
53876;DHT22;39789;53.216;5.624;2023-09-19T10:14:53;18.90;94.50
53876;DHT22;39789;53.216;5.624;2023-09-19T10:17:20;18.90;94.50
53876;DHT22;39789;53.216;5.624;2023-09-19T10:19:56;18.90;94.40
53876;DHT22;39789;53.216;5.624;2023-09-19T10:22:27;18.90;94.50
53876;DHT22;39789;53.216;5.624;2023-09-19T10:24:57;19.00;94.90
53876;DHT22;39789;53.216;5.624;2023-09-19T10:27:26;18.90;95.10
53876;DHT22;39789;53.216;5.624;2023-09-19T10:29:52;18.90;95.60
53876;DHT22;39789;53.216;5.624;2023-09-19T10:32:22;18.90;96.20
53876;DHT22;39789;53.216;5.624;2023-09-19T10:34:49;19.00;96.70
53876;DHT22;39789;53.216;5.624;2023-09-19T10:37:20;19.00;96.70
53876;DHT22;39789;53.216;5.624;2023-09-19T10:39:48;19.00;96.60
53876;DHT22;39789;53.216;5.624;2023-09-19T10:42:19;18.90;96.70
53876;DHT22;39789;53.216;5.624;2023-09-19T10:44:46;18.80;96.80
53876;DHT22;39789;53.216;5.624;2023-09-19T10:47:13;18.90;97.10
53876;DHT22;39789;53.216;5.624;2023-09-19T10:49:44;18.70;97.30
53876;DHT22;39789;53.216;5.624;2023-09-19T10:52:13;18.50;99.90
53876;DHT22;39789;53.216;5.624;2023-09-19T10:54:47;17.90;99.90
53876;DHT22;39789;53.216;5.624;2023-09-19T10:57:19;17.90;99.90
53876;DHT22;39789;53.216;5.624;2023-09-19T11:00:07;17.40;99.90
53876;DHT22;39789;53.216;5.624;2023-09-19T11:05:40;17.70;99.90
53876;DHT22;39789;53.216;5.624;2023-09-19T11:08:10;17.70;99.90
53876;DHT22;39789;53.216;5.624;2023-09-19T11:10:50;17.70;99.90
53876;DHT22;39789;53.216;5.624;2023-09-19T11:13:31;17.60;99.90
53876;DHT22;39789;53.216;5.624;2023-09-19T11:26:43;17.20;99.90
53876;DHT22;39789;53.216;5.624;2023-09-19T11:29:26;17.30;99.90
53876;DHT22;39789;53.216;5.624;2023-09-19T11:31:54;17.30;99.90
53876;DHT22;39789;53.216;5.624;2023-09-19T11:40:08;17.20;99.90
53876;DHT22;39789;53.216;5.624;2023-09-19T11:42:49;16.90;99.90
53876;DHT22;39789;53.216;5.624;2023-09-19T11:48:14;16.50;99.90
53876;DHT22;39789;53.216;5.624;2023-09-19T11:50:42;16.40;99.90
53876;DHT22;39789;53.216;5.624;2023-09-19T11:53:13;16.30;99.90
53876;DHT22;39789;53.216;5.624;2023-09-19T11:55:42;16.20;99.90
53876;DHT22;39789;53.216;5.624;2023-09-19T11:58:09;16.30;99.90
53876;DHT22;39789;53.216;5.624;2023-09-19T12:00:38;16.40;99.90
53876;DHT22;39789;53.216;5.624;2023-09-19T12:03:10;16.50;99.90
53876;DHT22;39789;53.216;5.624;2023-09-19T12:05:37;16.60;99.90
53876;DHT22;39789;53.216;5.624;2023-09-19T12:08:04;16.70;99.90
53876;DHT22;39789;53.216;5.624;2023-09-19T12:10:33;16.90;99.90
53876;DHT22;39789;53.216;5.624;2023-09-19T12:12:59;17.00;99.90
53876;DHT22;39789;53.216;5.624;2023-09-19T12:15:28;17.20;99.90
53876;DHT22;39789;53.216;5.624;2023-09-19T12:17:59;17.30;99.90
53876;DHT22;39789;53.216;5.624;2023-09-19T12:20:41;17.30;99.90
53876;DHT22;39789;53.216;5.624;2023-09-19T12:23:13;17.40;99.90
53876;DHT22;39789;53.216;5.624;2023-09-19T12:25:43;17.60;99.90
53876;DHT22;39789;53.216;5.624;2023-09-19T12:28:14;17.70;99.90
53876;DHT22;39789;53.216;5.624;2023-09-19T12:30:40;17.70;99.90
53876;DHT22;39789;53.216;5.624;2023-09-19T12:33:16;17.70;99.90
53876;DHT22;39789;53.216;5.624;2023-09-19T12:35:44;17.60;99.90
53876;DHT22;39789;53.216;5.624;2023-09-19T12:38:10;17.60;99.90
53876;DHT22;39789;53.216;5.624;2023-09-19T12:40:39;17.40;99.90
53876;DHT22;39789;53.216;5.624;2023-09-19T12:43:08;17.30;99.90
53876;DHT22;39789;53.216;5.624;2023-09-19T12:45:35;17.60;99.90
53876;DHT22;39789;53.216;5.624;2023-09-19T12:53:41;16.70;99.90
53876;DHT22;39789;53.216;5.624;2023-09-19T12:56:16;16.60;99.90
53876;DHT22;39789;53.216;5.624;2023-09-19T12:58:55;16.60;99.90
53876;DHT22;39789;53.216;5.624;2023-09-19T13:01:23;16.60;99.90
53876;DHT22;39789;53.216;5.624;2023-09-19T13:06:46;16.80;99.90
53876;DHT22;39789;53.216;5.624;2023-09-19T13:09:14;17.00;99.90
53876;DHT22;39789;53.216;5.624;2023-09-19T13:11:40;17.00;99.90
53876;DHT22;39789;53.216;5.624;2023-09-19T13:14:25;17.10;99.90
53876;DHT22;39789;53.216;5.624;2023-09-19T13:17:04;17.20;99.90
53876;DHT22;39789;53.216;5.624;2023-09-19T13:19:43;17.20;99.90
53876;DHT22;39789;53.216;5.624;2023-09-19T13:22:41;17.20;99.90
53876;DHT22;39789;53.216;5.624;2023-09-19T13:25:16;17.20;99.90
53876;DHT22;39789;53.216;5.624;2023-09-19T13:27:52;17.20;99.90
53876;DHT22;39789;53.216;5.624;2023-09-19T13:30:19;17.20;99.90
53876;DHT22;39789;53.216;5.624;2023-09-19T13:32:45;17.20;99.90
53876;DHT22;39789;53.216;5.624;2023-09-19T13:35:13;17.20;99.90
53876;DHT22;39789;53.216;5.624;2023-09-19T13:37:40;17.20;99.90
53876;DHT22;39789;53.216;5.624;2023-09-19T13:40:13;18.00;99.90
53876;DHT22;39789;53.216;5.624;2023-09-19T13:42:39;17.20;99.90
53876;DHT22;39789;53.216;5.624;2023-09-19T13:45:06;17.10;99.90
53876;DHT22;39789;53.216;5.624;2023-09-19T13:47:32;17.10;99.90
53876;DHT22;39789;53.216;5.624;2023-09-19T13:50:02;17.10;99.90
53876;DHT22;39789;53.216;5.624;2023-09-19T13:52:29;17.20;99.90
53876;DHT22;39789;53.216;5.624;2023-09-19T13:54:56;17.20;99.90
53876;DHT22;39789;53.216;5.624;2023-09-19T13:57:25;17.20;99.90
53876;DHT22;39789;53.216;5.624;2023-09-19T13:59:52;17.10;99.90
53876;DHT22;39789;53.216;5.624;2023-09-19T14:02:19;17.00;99.90
53876;DHT22;39789;53.216;5.624;2023-09-19T14:04:45;17.00;99.90
53876;DHT22;39789;53.216;5.624;2023-09-19T14:07:10;17.00;99.90
53876;DHT22;39789;53.216;5.624;2023-09-19T14:09:40;17.00;99.90
53876;DHT22;39789;53.216;5.624;2023-09-19T14:12:06;17.00;99.90
53876;DHT22;39789;53.216;5.624;2023-09-19T14:14:32;17.10;99.90
53876;DHT22;39789;53.216;5.624;2023-09-19T14:16:58;17.10;99.90
53876;DHT22;39789;53.216;5.624;2023-09-19T14:19:26;17.10;99.90
53876;DHT22;39789;53.216;5.624;2023-09-19T14:21:52;17.10;99.90
53876;DHT22;39789;53.216;5.624;2023-09-19T14:24:21;17.10;99.90
53876;DHT22;39789;53.216;5.624;2023-09-19T14:26:48;17.10;99.90
53876;DHT22;39789;53.216;5.624;2023-09-19T14:29:15;17.20;99.90
53876;DHT22;39789;53.216;5.624;2023-09-19T14:31:41;17.20;99.90
53876;DHT22;39789;53.216;5.624;2023-09-19T14:34:07;17.30;99.90
53876;DHT22;39789;53.216;5.624;2023-09-19T14:36:36;17.30;99.90
53876;DHT22;39789;53.216;5.624;2023-09-19T14:39:04;17.40;99.90
53876;DHT22;39789;53.216;5.624;2023-09-19T14:41:30;17.60;99.90
53876;DHT22;39789;53.216;5.624;2023-09-19T14:43:56;17.50;99.90
53876;DHT22;39789;53.216;5.624;2023-09-19T14:46:22;17.50;99.90
53876;DHT22;39789;53.216;5.624;2023-09-19T14:48:51;17.50;99.90
53876;DHT22;39789;53.216;5.624;2023-09-19T14:51:16;17.50;99.90
53876;DHT22;39789;53.216;5.624;2023-09-19T14:53:44;17.60;99.90
53876;DHT22;39789;53.216;5.624;2023-09-19T14:56:10;18.20;99.90
53876;DHT22;39789;53.216;5.624;2023-09-19T14:58:37;17.60;99.90
53876;DHT22;39789;53.216;5.624;2023-09-19T15:01:06;18.00;99.90
53876;DHT22;39789;53.216;5.624;2023-09-19T15:03:35;18.50;99.90
53876;DHT22;39789;53.216;5.624;2023-09-19T15:06:07;17.60;99.90
53876;DHT22;39789;53.216;5.624;2023-09-19T15:08:45;17.60;99.90
53876;DHT22;39789;53.216;5.624;2023-09-19T15:11:16;17.70;99.90
53876;DHT22;39789;53.216;5.624;2023-09-19T15:13:43;17.60;99.90
53876;DHT22;39789;53.216;5.624;2023-09-19T15:16:10;17.60;99.90
53876;DHT22;39789;53.216;5.624;2023-09-19T15:18:40;17.70;99.90
53876;DHT22;39789;53.216;5.624;2023-09-19T15:21:08;17.70;99.90
53876;DHT22;39789;53.216;5.624;2023-09-19T15:23:35;17.70;99.90
53876;DHT22;39789;53.216;5.624;2023-09-19T15:26:03;17.60;99.90
53876;DHT22;39789;53.216;5.624;2023-09-19T15:28:29;17.50;99.90
53876;DHT22;39789;53.216;5.624;2023-09-19T15:31:06;17.50;99.90
53876;DHT22;39789;53.216;5.624;2023-09-19T15:33:33;17.50;99.90
53876;DHT22;39789;53.216;5.624;2023-09-19T15:36:05;17.70;99.90
53876;DHT22;39789;53.216;5.624;2023-09-19T15:38:32;17.40;99.90
53876;DHT22;39789;53.216;5.624;2023-09-19T15:41:22;17.40;99.90
53876;DHT22;39789;53.216;5.624;2023-09-19T15:43:47;17.40;99.90
53876;DHT22;39789;53.216;5.624;2023-09-19T15:46:13;17.30;99.90
53876;DHT22;39789;53.216;5.624;2023-09-19T15:48:40;17.40;99.90
53876;DHT22;39789;53.216;5.624;2023-09-19T15:51:06;18.20;99.90
53876;DHT22;39789;53.216;5.624;2023-09-19T15:53:46;17.50;99.90
53876;DHT22;39789;53.216;5.624;2023-09-19T15:56:13;17.30;99.90
53876;DHT22;39789;53.216;5.624;2023-09-19T15:58:43;17.20;99.90
53876;DHT22;39789;53.216;5.624;2023-09-19T16:01:09;17.20;99.90
53876;DHT22;39789;53.216;5.624;2023-09-19T16:03:39;17.20;99.90
53876;DHT22;39789;53.216;5.624;2023-09-19T16:06:15;17.10;99.90
53876;DHT22;39789;53.216;5.624;2023-09-19T16:08:47;17.10;99.90
53876;DHT22;39789;53.216;5.624;2023-09-19T16:11:14;17.10;99.90
53876;DHT22;39789;53.216;5.624;2023-09-19T16:13:41;17.10;99.90
53876;DHT22;39789;53.216;5.624;2023-09-19T16:16:07;17.00;99.90
53876;DHT22;39789;53.216;5.624;2023-09-19T16:18:54;17.00;99.90
53876;DHT22;39789;53.216;5.624;2023-09-19T16:21:25;17.00;99.90
53876;DHT22;39789;53.216;5.624;2023-09-19T16:23:56;16.90;99.90
53876;DHT22;39789;53.216;5.624;2023-09-19T16:26:23;16.90;99.90